»·PEaware :: N921VN KPSP-KSNA

N921VN :: KPSP-KSNA

FLIGHT INFORMATION

Flight Status: Arrived
Operator: Privately registered:
United States
More flights under this callsign
Pilot: Kevin M. (7)
Aircraft: CESSNA 172 SKYHAWK
(C172)
More flights by this aircraft type
Origin: KPSP Palm Springs Intl
United States
Destination: KSNA John Wayne-Orange Co
United States
More flights between these airports :: More routes between these airports
Route: CATH1 PSP V388 PDZ PDZ270R RNDAL V363 POXKU V8 SLI
File this flight plan on PilotEdge
Remarks:
Altitude:
(Current/Filed)
10,000ft
Speed:
(Current/Filed)
130kts
Departed: 15-Oct-19 10:40 AM
Arrived: 15-Oct-19 11:27 AM
Distance/Time
Traveled:
69nm/0:47
Distance/Time
To Go:
Arrived

Flight Plot

Page will automatically refresh every two minutes.

Flight plan parsing failed; only flown route is shown


Map Options




Map Legend


Flown Route
Filed Route
Departure Airport
Arrival Airport
Navaid (VOR, NDB)
Fix

Horizontal Profiles

Position Reports

Time Latitude Longitude Heading Altitude Ground
Speed
15-Oct-19 10:20 33.822541 -116.496092 233 393ft 0kts
15-Oct-19 10:21 33.822541 -116.496092 233 393ft 0kts
15-Oct-19 10:22 33.822541 -116.496092 233 393ft 0kts
15-Oct-19 10:23 33.822541 -116.496092 233 393ft 0kts
15-Oct-19 10:24 33.822541 -116.496092 233 393ft 0kts
15-Oct-19 10:25 33.822541 -116.496092 233 393ft 0kts
15-Oct-19 10:26 33.822541 -116.496092 233 393ft 0kts
15-Oct-19 10:27 33.822515 -116.496135 238 393ft 0kts
15-Oct-19 10:28 33.822387 -116.496382 237 394ft 0kts
15-Oct-19 10:29 33.822155 -116.496867 213 396ft 1kts
15-Oct-19 10:30 33.820662 -116.495507 168 389ft 5kts
15-Oct-19 10:31 33.819248 -116.496982 221 394ft 1kts
15-Oct-19 10:32 33.819245 -116.496985 219 394ft 0kts
15-Oct-19 10:33 33.819245 -116.496985 219 394ft 0kts
15-Oct-19 10:34 33.819196 -116.497068 241 394ft 1kts
15-Oct-19 10:35 33.819162 -116.498319 322 397ft 0kts
15-Oct-19 10:36 33.819162 -116.498319 322 397ft 0kts
15-Oct-19 10:37 33.819162 -116.498319 322 397ft 0kts
15-Oct-19 10:38 33.819162 -116.498319 322 397ft 0kts
15-Oct-19 10:39 33.831191 -116.509023 321 960ft 74kts
15-Oct-19 10:40 33.848008 -116.524135 318 1899ft 77kts
15-Oct-19 10:41 33.865224 -116.539790 316 2778ft 79kts
15-Oct-19 10:42 33.882464 -116.556747 318 3613ft 82kts
15-Oct-19 10:43 33.901940 -116.562988 79 4354ft 86kts
15-Oct-19 10:44 33.899461 -116.533799 117 5071ft 86kts
15-Oct-19 10:45 33.890034 -116.507333 114 5786ft 86kts
15-Oct-19 10:46 33.885927 -116.479563 65 6437ft 97kts
15-Oct-19 10:47 33.905647 -116.491557 286 7054ft 102kts
15-Oct-19 10:48 33.913173 -116.525096 276 7597ft 105kts
15-Oct-19 10:49 33.919132 -116.559860 271 8133ft 106kts
15-Oct-19 10:50 33.922645 -116.595602 263 8633ft 107kts
15-Oct-19 10:51 33.925784 -116.632008 280 9092ft 112kts
15-Oct-19 10:52 33.931415 -116.667855 270 9612ft 106kts
15-Oct-19 10:53 33.936248 -116.702753 288 10028ft 111kts
15-Oct-19 10:54 33.944603 -116.743190 290 10020ft 130kts
15-Oct-19 10:55 33.945903 -116.788032 274 10023ft 135kts
15-Oct-19 10:56 33.948135 -116.833618 279 10026ft 135kts
15-Oct-19 10:57 33.955081 -116.878230 290 10030ft 134kts
15-Oct-19 10:58 33.961480 -116.922277 270 10031ft 137kts
15-Oct-19 10:59 33.964571 -116.967500 272 10031ft 136kts
15-Oct-19 11:00 33.951083 -117.009632 239 10031ft 137kts
15-Oct-19 11:01 33.935980 -117.051712 247 10022ft 137kts
15-Oct-19 11:02 33.924048 -117.094059 272 10022ft 135kts
15-Oct-19 11:03 33.924833 -117.139424 275 10021ft 135kts
15-Oct-19 11:04 33.926898 -117.184752 275 10018ft 135kts
15-Oct-19 11:05 33.929029 -117.230257 275 10015ft 135kts
15-Oct-19 11:06 33.931210 -117.275592 275 10012ft 135kts
15-Oct-19 11:07 33.933457 -117.321107 275 10009ft 135kts
15-Oct-19 11:08 33.935869 -117.368216 275 9806ft 140kts
15-Oct-19 11:09 33.937744 -117.414301 260 9806ft 137kts
15-Oct-19 11:10 33.928380 -117.460201 255 9672ft 138kts
15-Oct-19 11:11 33.920545 -117.505041 264 9675ft 136kts
15-Oct-19 11:12 33.918108 -117.551365 272 9507ft 144kts
15-Oct-19 11:13 33.937316 -117.591696 301 9112ft 147kts
15-Oct-19 11:14 33.950489 -117.638350 269 8611ft 151kts
15-Oct-19 11:15 33.955440 -117.686581 301 8101ft 145kts
15-Oct-19 11:16 33.974350 -117.729228 302 7592ft 143kts
15-Oct-19 11:17 33.965594 -117.768781 199 7032ft 151kts
15-Oct-19 11:18 33.924855 -117.781944 192 6481ft 143kts
15-Oct-19 11:19 33.887275 -117.793575 192 5746ft 139kts
15-Oct-19 11:20 33.848508 -117.803312 189 4665ft 148kts
15-Oct-19 11:21 33.808340 -117.812106 189 3520ft 146kts
15-Oct-19 11:22 33.768951 -117.819528 191 2524ft 141kts
15-Oct-19 11:23 33.732169 -117.832195 208 1567ft 127kts
15-Oct-19 11:24 33.704614 -117.850156 209 824ft 89kts
15-Oct-19 11:25 33.685626 -117.862464 209 190ft 72kts
15-Oct-19 11:26 33.675859 -117.869614 306 60ft 11kts
15-Oct-19 11:27 33.676588 -117.871235 296 60ft 3kts
15-Oct-19 11:28 33.676898 -117.871348 13 60ft 0kts
15-Oct-19 11:29 33.676898 -117.871348 13 60ft 0kts
15-Oct-19 11:30 33.676898 -117.871348 13 60ft 0kts

Navigation Log

Ident Type
Flight plan parsing failed, navigation log unavailable